Aviation

FTHA31 MTPP 161700
TAF MTPP 161700Z 1618/1718 08012KT 9999 FEW026
BECMG 1621/1700 VRB02KT
FM170400 09010KT 7000 NSC
FM171500 04008KT 9999 FEW025=